Time;durP1;ratioP1;P1;durP2;ratioP2;P2;SDS_P1;SDS_P2;PMS_P1;PMS_P2;Temp;Humidity;BMP_temperature;BMP_pressure;BME280_temperature;BME280_humidity;BME280_pressure;Samples;Min_cycle;Max_cycle;Signal;HPM_P1;HPM_P2
2022/12/06 00:01:17;;;;;;;14.77;5.50;;;;;;;;;;5070626;28;20400;-70
2022/12/06 00:03:44;;;;;;;11.82;5.28;;;;;;;;;;5051708;28;20506;-70
2022/12/06 00:06:12;;;;;;;13.05;5.13;;;;;;;;;;5035611;28;20927;-70
2022/12/06 00:08:38;;;;;;;11.13;5.68;;;;;;;;;;5054322;28;20403;-71
2022/12/06 00:11:04;;;;;;;14.57;5.40;;;;;;;;;;5052354;28;20415;-71
2022/12/06 00:13:30;;;;;;;13.70;5.83;;;;;;;;;;5045072;28;20792;-71
2022/12/06 00:15:59;;;;;;;13.35;5.70;;;;;;;;;;5034949;28;20431;-71
2022/12/06 00:18:25;;;;;;;11.00;4.95;;;;;;;;;;5052317;28;20469;-71
2022/12/06 00:20:51;;;;;;;12.45;5.43;;;;;;;;;;5047011;28;20828;-71
2022/12/06 00:23:17;;;;;;;13.45;5.78;;;;;;;;;;5033966;28;20480;-71
2022/12/06 00:25:43;;;;;;;12.10;5.40;;;;;;;;;;5033798;28;20431;-70
2022/12/06 00:28:09;;;;;;;10.73;5.20;;;;;;;;;;5050669;28;20522;-71
2022/12/06 00:30:36;;;;;;;12.23;5.53;;;;;;;;;;5053082;28;20429;-71
2022/12/06 00:33:02;;;;;;;13.07;5.35;;;;;;;;;;5042613;28;20923;-71
2022/12/06 00:35:28;;;;;;;12.60;5.55;;;;;;;;;;5051079;28;21551;-70
2022/12/06 00:37:54;;;;;;;15.55;6.10;;;;;;;;;;5050233;28;20435;-70
2022/12/06 00:40:20;;;;;;;12.17;5.77;;;;;;;;;;5050622;28;20451;-70
2022/12/06 00:42:46;;;;;;;11.27;5.60;;;;;;;;;;5040391;28;20463;-70
2022/12/06 00:45:12;;;;;;;12.98;6.18;;;;;;;;;;5025452;28;22231;-70
2022/12/06 00:47:38;;;;;;;11.63;5.57;;;;;;;;;;5042742;28;20485;-70
2022/12/06 00:50:05;;;;;;;14.52;5.63;;;;;;;;;;5051055;28;20431;-69
2022/12/06 00:52:31;;;;;;;15.55;6.10;;;;;;;;;;5050057;28;20481;-70
2022/12/06 00:54:57;;;;;;;13.83;5.67;;;;;;;;;;5052944;28;20456;-70
2022/12/06 00:57:26;;;;;;;15.75;5.85;;;;;;;;;;5071121;28;20399;-70
2022/12/06 00:59:55;;;;;;;14.37;5.63;;;;;;;;;;5059177;28;20502;-78
2022/12/06 01:02:21;;;;;;;14.45;5.50;;;;;;;;;;5073932;28;20514;-77
2022/12/06 01:04:47;;;;;;;15.65;5.78;;;;;;;;;;5061387;28;20791;-78
2022/12/06 01:07:14;;;;;;;14.77;5.70;;;;;;;;;;5041629;28;20926;-77
2022/12/06 01:09:41;;;;;;;19.67;6.00;;;;;;;;;;5052378;28;20445;-79
2022/12/06 01:12:07;;;;;;;12.53;5.43;;;;;;;;;;5059883;28;20450;-78
2022/12/06 01:14:33;;;;;;;13.60;5.40;;;;;;;;;;5068536;28;20445;-78
2022/12/06 01:16:59;;;;;;;10.25;5.38;;;;;;;;;;5070201;28;20851;-78
2022/12/06 01:19:25;;;;;;;15.27;5.68;;;;;;;;;;5069158;28;20427;-78
2022/12/06 01:21:51;;;;;;;14.70;5.20;;;;;;;;;;5045081;28;20485;-78
2022/12/06 01:24:17;;;;;;;13.93;4.97;;;;;;;;;;5040295;28;20476;-78
2022/12/06 01:26:43;;;;;;;13.05;5.32;;;;;;;;;;5056811;28;20423;-78
2022/12/06 01:29:09;;;;;;;15.18;5.40;;;;;;;;;;5043136;28;20501;-79
2022/12/06 01:31:35;;;;;;;14.00;5.47;;;;;;;;;;5061115;28;20408;-77
2022/12/06 01:34:01;;;;;;;13.70;5.20;;;;;;;;;;5060321;28;20457;-77
2022/12/06 01:36:27;;;;;;;11.60;4.70;;;;;;;;;;5071966;28;20419;-78
2022/12/06 01:38:55;;;;;;;12.63;4.97;;;;;;;;;;5059631;28;20419;-77
2022/12/06 01:41:22;;;;;;;11.75;4.32;;;;;;;;;;5076028;28;20403;-78
2022/12/06 01:43:48;;;;;;;14.13;5.00;;;;;;;;;;5039223;28;20442;-77
2022/12/06 01:46:30;;;;;;;11.65;4.80;;;;;;;;;;5059642;28;20423;-76
2022/12/06 01:49:06;;;;;;;12.50;4.80;;;;;;;;;;5044284;28;20431;-78
2022/12/06 01:51:33;;;;;;;14.63;4.70;;;;;;;;;;5067115;28;20487;-77
2022/12/06 01:54:01;;;;;;;13.00;4.57;;;;;;;;;;5082460;28;20479;-77
2022/12/06 01:56:27;;;;;;;12.98;4.57;;;;;;;;;;5082234;28;20431;-78
2022/12/06 01:58:54;;;;;;;12.27;4.50;;;;;;;;;;5045514;28;20866;-78
2022/12/06 02:01:20;;;;;;;11.68;4.53;;;;;;;;;;5059359;28;20877;-77
2022/12/06 02:03:47;;;;;;;13.93;4.43;;;;;;;;;;5052526;28;20508;-78
2022/12/06 02:06:14;;;;;;;10.55;4.50;;;;;;;;;;5056682;28;20757;-78
2022/12/06 02:08:41;;;;;;;10.45;4.60;;;;;;;;;;5060156;28;20424;-78
2022/12/06 02:11:08;;;;;;;11.07;4.07;;;;;;;;;;5038342;28;20412;-78
2022/12/06 02:13:35;;;;;;;12.95;4.15;;;;;;;;;;5056090;28;20423;-70
2022/12/06 02:16:04;;;;;;;10.70;3.70;;;;;;;;;;5036930;28;20923;-71
2022/12/06 02:18:33;;;;;;;12.48;4.22;;;;;;;;;;5055211;28;20415;-70
2022/12/06 02:21:18;;;;;;;10.83;3.87;;;;;;;;;;5037042;28;20473;-71
2022/12/06 02:24:00;;;;;;;11.23;3.70;;;;;;;;;;5055945;28;20411;-70
2022/12/06 02:26:26;;;;;;;7.75;3.15;;;;;;;;;;5055175;28;20426;-70
2022/12/06 02:28:55;;;;;;;8.52;3.40;;;;;;;;;;5038454;28;20433;-70
2022/12/06 02:31:24;;;;;;;11.10;3.47;;;;;;;;;;5036629;28;20420;-71
2022/12/06 02:33:51;;;;;;;8.68;3.45;;;;;;;;;;5050117;28;20919;-70
2022/12/06 02:36:33;;;;;;;8.88;3.08;;;;;;;;;;5029157;28;20459;-70
2022/12/06 02:39:02;;;;;;;8.35;3.20;;;;;;;;;;5037338;28;20423;-70
2022/12/06 02:41:33;;;;;;;11.00;3.10;;;;;;;;;;5050897;28;20539;-78
2022/12/06 02:44:02;;;;;;;8.85;2.70;;;;;;;;;;5054256;28;20518;-77
2022/12/06 02:46:31;;;;;;;8.13;3.13;;;;;;;;;;5038132;28;20494;-77
2022/12/06 02:48:59;;;;;;;10.85;3.20;;;;;;;;;;5036392;28;20764;-77
2022/12/06 02:51:26;;;;;;;8.30;3.10;;;;;;;;;;5049260;28;20424;-77
2022/12/06 02:53:53;;;;;;;8.35;2.92;;;;;;;;;;5054655;28;20451;-77
2022/12/06 02:56:20;;;;;;;11.40;3.40;;;;;;;;;;5054098;28;20820;-78
2022/12/06 02:58:46;;;;;;;8.85;3.30;;;;;;;;;;5054793;28;20412;-77
2022/12/06 03:01:24;;;;;;;10.05;3.10;;;;;;;;;;5038270;28;20411;-77
2022/12/06 03:03:58;;;;;;;6.85;3.10;;;;;;;;;;5052552;28;20953;-78
2022/12/06 03:06:27;;;;;;;7.47;3.03;;;;;;;;;;5037726;28;20410;-77
2022/12/06 03:09:17;;;;;;;9.75;3.25;;;;;;;;;;5047689;28;20485;-70
2022/12/06 03:12:15;;;;;;;8.30;3.33;;;;;;;;;;5030846;28;20918;-70
2022/12/06 03:15:08;;;;;;;10.57;3.30;;;;;;;;;;5009748;28;20416;-71
2022/12/06 03:17:42;;;;;;;11.57;3.25;;;;;;;;;;5050674;28;20957;-70
2022/12/06 03:20:15;;;;;;;6.97;3.30;;;;;;;;;;5054324;28;20424;-70
2022/12/06 03:22:45;;;;;;;7.20;3.17;;;;;;;;;;5036178;28;20800;-70
2022/12/06 03:25:12;;;;;;;7.97;3.13;;;;;;;;;;5037479;28;20427;-69
2022/12/06 03:27:39;;;;;;;7.13;3.28;;;;;;;;;;5052601;28;20511;-70
2022/12/06 03:30:07;;;;;;;6.75;3.22;;;;;;;;;;5048781;28;20431;-71
2022/12/06 03:32:34;;;;;;;8.47;3.33;;;;;;;;;;5054076;28;20840;-70
2022/12/06 03:35:03;;;;;;;7.32;3.10;;;;;;;;;;5041356;28;20421;-70
2022/12/06 03:37:30;;;;;;;8.73;3.37;;;;;;;;;;5047811;28;20496;-70
2022/12/06 03:39:56;;;;;;;7.85;3.20;;;;;;;;;;5054026;28;20451;-70
2022/12/06 03:42:22;;;;;;;10.32;3.20;;;;;;;;;;5041843;28;20469;-70
2022/12/06 03:44:48;;;;;;;10.47;3.30;;;;;;;;;;5051861;28;20439;-70
2022/12/06 03:47:17;;;;;;;7.88;3.25;;;;;;;;;;5053490;28;21453;-69
2022/12/06 03:49:50;;;;;;;8.90;3.58;;;;;;;;;;5052594;28;20465;-69
2022/12/06 03:52:16;;;;;;;8.27;3.72;;;;;;;;;;5043516;28;20466;-70
2022/12/06 03:54:42;;;;;;;8.70;3.50;;;;;;;;;;5023223;28;20423;-70
2022/12/06 03:57:08;;;;;;;8.63;3.90;;;;;;;;;;5052516;28;20444;-70
2022/12/06 03:59:34;;;;;;;8.57;3.80;;;;;;;;;;5051962;28;20415;-70
2022/12/06 04:02:00;;;;;;;10.25;3.67;;;;;;;;;;5036204;28;20462;-78
2022/12/06 04:04:26;;;;;;;7.38;3.25;;;;;;;;;;5052626;28;20427;-78
2022/12/06 04:06:53;;;;;;;11.13;3.70;;;;;;;;;;5028966;28;20918;-78
2022/12/06 04:12:59;;;;;;;9.95;3.70;;;;;;;;;;5051903;28;20478;-70
2022/12/06 04:14:52;;;;;;;11.93;3.67;;;;;;;;;;5053221;28;20510;-70
2022/12/06 04:20:03;;;;;;;11.07;3.58;;;;;;;;;;5052330;28;20477;-70
2022/12/06 04:25:14;;;;;;;10.20;4.10;;;;;;;;;;5050682;28;20427;-70
2022/12/06 04:38:41;;;;;;;7.57;4.10;;;;;;;;;;5034473;28;20408;-70
2022/12/06 04:41:08;;;;;;;10.45;4.20;;;;;;;;;;5048875;28;20415;-70
2022/12/06 04:43:43;;;;;;;10.73;4.20;;;;;;;;;;5032771;28;20431;-71
2022/12/06 04:46:11;;;;;;;9.40;4.22;;;;;;;;;;5030307;28;20945;-70
2022/12/06 04:48:37;;;;;;;9.60;4.38;;;;;;;;;;5024446;28;20433;-70
2022/12/06 04:51:03;;;;;;;9.40;4.30;;;;;;;;;;5020531;28;20463;-70
2022/12/06 04:53:29;;;;;;;12.48;4.28;;;;;;;;;;5019673;28;20443;-70
2022/12/06 04:55:55;;;;;;;11.25;4.00;;;;;;;;;;5023531;28;20438;-71
2022/12/06 04:58:22;;;;;;;10.07;4.18;;;;;;;;;;5019478;28;20430;-71
2022/12/06 05:00:50;;;;;;;11.57;4.22;;;;;;;;;;5028199;28;20604;-70
2022/12/06 05:03:16;;;;;;;8.90;4.32;;;;;;;;;;5030955;28;20501;-70
2022/12/06 05:05:42;;;;;;;10.27;4.23;;;;;;;;;;5029329;28;20493;-70
2022/12/06 05:08:08;;;;;;;9.20;5.07;;;;;;;;;;5011882;28;20784;-70
2022/12/06 05:10:35;;;;;;;11.65;4.72;;;;;;;;;;5029563;28;20411;-70
2022/12/06 05:13:01;;;;;;;9.48;4.53;;;;;;;;;;5018771;28;20471;-70
2022/12/06 05:15:28;;;;;;;10.13;4.80;;;;;;;;;;5009246;28;20427;-70
2022/12/06 05:17:57;;;;;;;10.35;4.95;;;;;;;;;;5015035;28;20428;-70
2022/12/06 05:20:23;;;;;;;11.95;4.70;;;;;;;;;;5012678;28;20427;-70
2022/12/06 05:22:49;;;;;;;10.57;4.90;;;;;;;;;;5026117;28;20497;-70
2022/12/06 05:25:15;;;;;;;10.73;5.00;;;;;;;;;;5029083;28;20427;-70
2022/12/06 05:27:42;;;;;;;11.32;4.80;;;;;;;;;;5027894;28;20434;-70
2022/12/06 05:30:09;;;;;;;11.77;4.80;;;;;;;;;;5024456;28;20564;-71
2022/12/06 05:32:35;;;;;;;11.15;5.00;;;;;;;;;;5027720;28;20423;-72
2022/12/06 05:35:01;;;;;;;12.13;5.10;;;;;;;;;;5029428;28;20903;-71
2022/12/06 05:37:27;;;;;;;11.68;4.90;;;;;;;;;;5026855;28;20938;-72
2022/12/06 05:39:53;;;;;;;13.03;5.20;;;;;;;;;;5013577;28;20993;-70
2022/12/06 05:42:19;;;;;;;14.18;5.88;;;;;;;;;;5026364;28;20803;-70
2022/12/06 05:44:45;;;;;;;11.32;5.40;;;;;;;;;;5035252;28;20460;-70
2022/12/06 05:47:11;;;;;;;12.65;5.72;;;;;;;;;;5052116;28;20432;-70
2022/12/06 05:49:37;;;;;;;14.88;6.20;;;;;;;;;;5030197;28;21227;-70
2022/12/06 05:52:03;;;;;;;11.27;5.23;;;;;;;;;;5049569;28;20486;-70
2022/12/06 05:54:29;;;;;;;14.02;5.90;;;;;;;;;;5052701;28;20427;-71
2022/12/06 05:56:55;;;;;;;9.90;5.50;;;;;;;;;;5050008;28;20463;-71
2022/12/06 05:59:21;;;;;;;12.02;5.78;;;;;;;;;;5033728;28;20428;-70
2022/12/06 06:01:47;;;;;;;12.43;5.50;;;;;;;;;;5051795;28;20500;-70
2022/12/06 06:04:13;;;;;;;14.05;5.63;;;;;;;;;;5037540;28;20420;-70
2022/12/06 06:06:40;;;;;;;10.57;5.22;;;;;;;;;;5050819;28;20558;-70
2022/12/06 06:09:06;;;;;;;12.63;5.50;;;;;;;;;;5049113;28;20421;-71
2022/12/06 06:11:32;;;;;;;15.30;5.80;;;;;;;;;;5051555;28;20421;-70
2022/12/06 06:13:58;;;;;;;11.68;5.38;;;;;;;;;;5031784;28;20435;-70
2022/12/06 06:16:24;;;;;;;13.82;5.85;;;;;;;;;;5051846;28;20804;-71
2022/12/06 06:18:50;;;;;;;13.30;6.10;;;;;;;;;;5035456;28;20419;-70
2022/12/06 06:21:16;;;;;;;15.00;5.90;;;;;;;;;;5034554;28;20421;-70
2022/12/06 06:23:42;;;;;;;12.80;5.78;;;;;;;;;;5025976;28;20519;-71
2022/12/06 06:26:09;;;;;;;14.45;6.30;;;;;;;;;;5042774;28;20556;-70
2022/12/06 06:28:35;;;;;;;11.00;5.47;;;;;;;;;;5031505;28;20918;-71
2022/12/06 06:31:05;;;;;;;11.27;5.78;;;;;;;;;;5049788;28;20436;-71
2022/12/06 06:33:32;;;;;;;14.32;5.90;;;;;;;;;;5036297;28;20433;-71
2022/12/06 06:35:58;;;;;;;11.60;5.78;;;;;;;;;;5031663;28;20829;-71
2022/12/06 06:38:24;;;;;;;12.23;5.70;;;;;;;;;;5050054;28;20420;-71
2022/12/06 06:40:50;;;;;;;17.70;5.73;;;;;;;;;;5051837;28;20417;-72
2022/12/06 06:43:19;;;;;;;15.57;6.10;;;;;;;;;;5052383;28;20455;-70
2022/12/06 06:45:45;;;;;;;15.57;6.25;;;;;;;;;;5036261;28;20431;-70
2022/12/06 06:48:12;;;;;;;14.80;6.70;;;;;;;;;;5024596;28;20477;-70
2022/12/06 06:50:38;;;;;;;15.07;6.75;;;;;;;;;;5027239;28;20441;-70
2022/12/06 06:53:05;;;;;;;15.50;6.87;;;;;;;;;;5032563;28;20851;-70
2022/12/06 06:55:31;;;;;;;12.60;6.07;;;;;;;;;;5028931;28;20442;-71
2022/12/06 06:57:58;;;;;;;10.80;5.90;;;;;;;;;;5025455;28;20411;-71
2022/12/06 07:00:24;;;;;;;138.75;18.20;;;;;;;;;;5011612;28;20480;-70
2022/12/06 07:02:50;;;;;;;16.17;6.50;;;;;;;;;;5031329;28;20481;-70
2022/12/06 07:05:16;;;;;;;12.23;6.18;;;;;;;;;;5014274;28;20427;-70
2022/12/06 07:07:43;;;;;;;12.60;6.10;;;;;;;;;;5029914;28;20798;-70
2022/12/06 07:10:09;;;;;;;17.38;9.60;;;;;;;;;;5030634;28;20426;-70
2022/12/06 07:12:35;;;;;;;17.13;8.35;;;;;;;;;;5031204;28;20438;-70
2022/12/06 07:15:01;;;;;;;16.27;7.40;;;;;;;;;;4995157;28;20425;-71
2022/12/06 07:17:27;;;;;;;15.63;6.72;;;;;;;;;;5026885;28;20427;-72
2022/12/06 07:19:54;;;;;;;14.43;6.57;;;;;;;;;;4994771;28;21007;-70
2022/12/06 07:22:20;;;;;;;14.68;6.88;;;;;;;;;;5016872;28;20411;-70
2022/12/06 07:24:46;;;;;;;11.90;5.85;;;;;;;;;;5014072;28;20484;-70
2022/12/06 07:27:12;;;;;;;11.80;6.55;;;;;;;;;;5014453;28;20531;-71
2022/12/06 07:29:38;;;;;;;12.27;6.40;;;;;;;;;;5030902;28;20838;-71
2022/12/06 07:32:05;;;;;;;17.02;6.90;;;;;;;;;;5008868;28;20438;-71
2022/12/06 07:34:32;;;;;;;16.02;6.57;;;;;;;;;;5024617;28;20423;-70
2022/12/06 07:36:58;;;;;;;13.87;6.50;;;;;;;;;;5032504;28;20905;-71
2022/12/06 07:39:25;;;;;;;12.65;6.40;;;;;;;;;;5000024;28;20939;-72
2022/12/06 07:47:20;;;;;;;15.07;7.03;;;;;;;;;;5013029;28;20928;-71
2022/12/06 07:49:46;;;;;;;14.45;7.70;;;;;;;;;;5027871;28;20461;-71
2022/12/06 07:52:12;;;;;;;15.93;7.57;;;;;;;;;;5023333;28;20427;-72
2022/12/06 07:54:40;;;;;;;14.30;7.22;;;;;;;;;;4998754;28;20426;-72
2022/12/06 07:57:06;;;;;;;13.88;7.60;;;;;;;;;;5029189;28;20422;-72
2022/12/06 07:59:33;;;;;;;14.75;7.90;;;;;;;;;;5012900;28;20440;-72
2022/12/06 08:01:59;;;;;;;13.90;6.90;;;;;;;;;;5021638;28;20446;-71
2022/12/06 08:04:25;;;;;;;12.32;6.40;;;;;;;;;;5014038;28;20428;-72
2022/12/06 08:06:52;;;;;;;13.73;6.93;;;;;;;;;;5025162;28;20866;-71
2022/12/06 08:09:18;;;;;;;11.90;6.68;;;;;;;;;;5028067;28;20422;-71
2022/12/06 08:11:44;;;;;;;12.50;6.20;;;;;;;;;;5028462;28;20415;-72
2022/12/06 08:14:11;;;;;;;13.67;6.37;;;;;;;;;;5010094;28;20953;-71
2022/12/06 08:16:37;;;;;;;14.05;7.00;;;;;;;;;;5023693;28;20506;-71
2022/12/06 08:19:03;;;;;;;11.63;6.20;;;;;;;;;;5028432;28;20437;-71
2022/12/06 08:21:29;;;;;;;16.70;7.97;;;;;;;;;;5028920;28;20449;-71
2022/12/06 08:23:55;;;;;;;13.40;7.82;;;;;;;;;;5019342;28;20779;-71
2022/12/06 08:26:21;;;;;;;16.85;8.40;;;;;;;;;;5027632;28;20450;-71
2022/12/06 08:28:47;;;;;;;18.55;10.38;;;;;;;;;;5028120;28;20423;-71
2022/12/06 08:31:18;;;;;;;13.45;8.02;;;;;;;;;;5005459;28;20424;-71
2022/12/06 08:33:45;;;;;;;14.88;7.45;;;;;;;;;;5027237;28;20427;-71
2022/12/06 08:36:12;;;;;;;15.77;7.75;;;;;;;;;;5007483;28;20508;-71
2022/12/06 08:38:38;;;;;;;10.47;5.80;;;;;;;;;;5012598;28;20646;-71
2022/12/06 08:41:05;;;;;;;10.63;5.72;;;;;;;;;;5028164;28;20935;-71
2022/12/06 08:43:31;;;;;;;12.25;5.30;;;;;;;;;;5027269;28;20438;-72
2022/12/06 08:45:58;;;;;;;14.95;5.55;;;;;;;;;;5042301;28;20495;-70
2022/12/06 08:48:24;;;;;;;11.30;5.05;;;;;;;;;;5040166;28;20453;-70
2022/12/06 08:50:50;;;;;;;11.50;5.10;;;;;;;;;;5037776;28;20452;-70
2022/12/06 08:53:16;;;;;;;12.47;5.30;;;;;;;;;;5044062;28;20450;-71
2022/12/06 08:55:42;;;;;;;11.15;5.47;;;;;;;;;;5016222;28;20949;-71
2022/12/06 08:58:08;;;;;;;8.40;5.25;;;;;;;;;;5027592;28;20437;-71
2022/12/06 09:00:34;;;;;;;9.40;5.40;;;;;;;;;;5025468;28;20432;-71
2022/12/06 09:03:00;;;;;;;14.10;5.47;;;;;;;;;;5045044;28;20425;-70
2022/12/06 09:05:26;;;;;;;11.07;5.03;;;;;;;;;;5033785;28;20488;-71
2022/12/06 09:07:52;;;;;;;9.20;5.00;;;;;;;;;;5025892;28;20425;-72
2022/12/06 09:10:18;;;;;;;8.10;4.35;;;;;;;;;;5030371;28;20429;-72
2022/12/06 09:12:44;;;;;;;7.28;4.03;;;;;;;;;;5049118;28;20433;-72
2022/12/06 09:15:11;;;;;;;10.07;4.32;;;;;;;;;;5047479;28;20448;-72
2022/12/06 09:17:37;;;;;;;10.35;4.10;;;;;;;;;;5032270;28;20880;-72
2022/12/06 09:20:03;;;;;;;10.48;4.20;;;;;;;;;;5032644;28;20520;-73
2022/12/06 09:22:29;;;;;;;9.75;3.72;;;;;;;;;;5032053;28;20524;-72
2022/12/06 09:24:55;;;;;;;9.43;4.15;;;;;;;;;;5034108;28;20421;-72
2022/12/06 09:27:22;;;;;;;9.60;3.80;;;;;;;;;;5053600;28;20529;-72
2022/12/06 09:29:48;;;;;;;7.93;3.63;;;;;;;;;;5051963;28;20508;-72
2022/12/06 09:32:14;;;;;;;13.38;4.30;;;;;;;;;;5044321;28;20429;-73
2022/12/06 09:34:40;;;;;;;8.48;4.00;;;;;;;;;;5050924;28;20515;-72
2022/12/06 09:37:11;;;;;;;7.78;4.10;;;;;;;;;;5045448;28;20417;-72
2022/12/06 09:39:39;;;;;;;10.63;4.30;;;;;;;;;;5033581;28;20403;-72
2022/12/06 09:42:12;;;;;;;8.98;3.85;;;;;;;;;;5036628;28;20429;-72
2022/12/06 09:44:38;;;;;;;10.03;4.00;;;;;;;;;;5029528;28;20422;-73
2022/12/06 09:47:13;;;;;;;11.73;4.20;;;;;;;;;;5029581;28;20525;-72
2022/12/06 09:49:50;;;;;;;11.85;4.45;;;;;;;;;;5029608;28;20420;-73
2022/12/06 09:52:29;;;;;;;9.07;4.20;;;;;;;;;;5019769;28;20517;-73
2022/12/06 09:55:14;;;;;;;9.35;3.72;;;;;;;;;;5032356;28;20403;-73
2022/12/06 09:58:00;;;;;;;7.10;3.63;;;;;;;;;;5032282;28;20407;-73
2022/12/06 10:00:28;;;;;;;7.18;3.80;;;;;;;;;;5009816;28;20432;-71
2022/12/06 10:03:00;;;;;;;8.95;3.72;;;;;;;;;;5023193;28;20440;-72
2022/12/06 10:05:26;;;;;;;6.65;3.72;;;;;;;;;;5025241;28;20489;-71
2022/12/06 10:07:58;;;;;;;7.00;4.00;;;;;;;;;;5026480;28;20429;-71
2022/12/06 10:10:24;;;;;;;9.63;4.20;;;;;;;;;;5032979;28;20465;-72
2022/12/06 10:13:03;;;;;;;7.70;3.83;;;;;;;;;;5028952;28;20434;-71
2022/12/06 10:15:47;;;;;;;6.65;3.42;;;;;;;;;;5029440;28;20434;-71
2022/12/06 10:18:25;;;;;;;6.68;3.50;;;;;;;;;;5009413;28;20421;-71
2022/12/06 10:20:54;;;;;;;6.85;3.15;;;;;;;;;;5025788;28;20573;-72
2022/12/06 10:23:39;;;;;;;8.60;3.30;;;;;;;;;;5026312;28;20936;-71
2022/12/06 10:26:13;;;;;;;6.95;3.47;;;;;;;;;;5012198;28;20426;-73
2022/12/06 10:28:44;;;;;;;6.40;3.15;;;;;;;;;;5027788;28;20423;-73
2022/12/06 10:31:20;;;;;;;6.40;3.20;;;;;;;;;;5026935;28;20430;-72
2022/12/06 10:33:54;;;;;;;7.90;2.90;;;;;;;;;;5007543;28;20441;-73
2022/12/06 10:36:52;;;;;;;7.00;3.00;;;;;;;;;;5028359;28;20423;-72
2022/12/06 10:39:21;;;;;;;7.65;2.75;;;;;;;;;;5023789;28;20911;-72
2022/12/06 10:41:50;;;;;;;6.18;2.90;;;;;;;;;;5026348;28;20489;-72
2022/12/06 10:44:22;;;;;;;6.00;2.90;;;;;;;;;;5022098;28;20828;-72
2022/12/06 10:47:08;;;;;;;7.18;2.70;;;;;;;;;;5043806;28;20423;-72
2022/12/06 10:49:34;;;;;;;6.90;3.08;;;;;;;;;;5047771;28;20852;-72
2022/12/06 10:52:32;;;;;;;6.07;3.03;;;;;;;;;;5045103;28;20777;-72
2022/12/06 10:55:04;;;;;;;6.63;3.05;;;;;;;;;;5014578;28;20416;-72
2022/12/06 10:57:30;;;;;;;7.00;3.10;;;;;;;;;;5053143;28;20411;-71
2022/12/06 10:59:56;;;;;;;8.30;3.20;;;;;;;;;;5063469;28;20427;-71
2022/12/06 11:03:01;;;;;;;6.30;3.13;;;5.80;99.90;;;;;;5033883;28;20431;-72
2022/12/06 11:05:30;;;;;;;7.03;3.20;;;;;;;;;;5028929;28;20428;-71
2022/12/06 11:08:02;;;;;;;9.90;3.30;;;;;;;;;;5046054;28;20818;-71
2022/12/06 11:10:30;;;;;;;6.60;3.20;;;;;;;;;;5047533;28;20420;-72
2022/12/06 11:13:00;;;;;;;6.90;3.00;;;;;;;;;;5049143;28;20435;-71
2022/12/06 11:15:29;;;;;;;6.85;3.00;;;;;;;;;;5031870;28;20479;-72
2022/12/06 11:17:58;;;;;;;7.60;3.27;;;;;;;;;;5020902;28;20423;-72
2022/12/06 11:20:30;;;;;;;5.40;2.75;;;;;;;;;;5052989;28;20473;-71
2022/12/06 11:23:16;;;;;;;7.60;2.83;;;;;;;;;;5040661;28;20548;-71
2022/12/06 11:25:48;;;;;;;7.75;3.10;;;;;;;;;;5066330;28;20420;-71
2022/12/06 11:28:20;;;;;;;6.63;2.90;;;;;;;;;;5051769;28;20427;-71
2022/12/06 11:30:47;;;;;;;7.82;2.70;;;;;;;;;;5048423;28;20490;-71
2022/12/06 11:33:13;;;;;;;5.47;2.72;;;;;;;;;;5044472;28;20433;-71
2022/12/06 11:35:40;;;;;;;6.90;2.70;;;;;;;;;;5048027;28;20419;-72
2022/12/06 11:38:07;;;;;;;5.72;2.40;;;;;;;;;;5048415;28;20493;-71
2022/12/06 11:40:34;;;;;;;5.20;2.20;;;;;;;;;;5021308;28;20435;-71
2022/12/06 11:43:02;;;;;;;5.13;2.60;;;;;;;;;;5048935;28;20820;-72
2022/12/06 11:45:37;;;;;;;6.03;3.05;;;;;;;;;;5043995;28;20428;-71
2022/12/06 11:48:21;;;;;;;5.50;2.42;;;;;;;;;;5046467;28;20486;-71
2022/12/06 11:50:48;;;;;;;5.10;2.40;;;;;;;;;;5040413;28;20976;-71
2022/12/06 11:53:26;;;;;;;5.40;2.70;;;;;;;;;;5028864;28;20446;-71
2022/12/06 11:55:54;;;;;;;5.57;2.60;;;;;;;;;;5044926;28;20771;-72
2022/12/06 11:58:37;;;;;;;5.57;2.80;;;;;;;;;;5032691;28;20522;-71
2022/12/06 12:01:13;;;;;;;4.88;2.40;;;;;;;;;;5042857;28;20424;-72
2022/12/06 12:03:40;;;;;;;5.88;2.65;;;;;;;;;;5048440;28;20427;-72
2022/12/06 12:06:25;;;;;;;7.07;2.95;;;;;;;;;;5051506;28;20419;-71
2022/12/06 12:08:53;;;;;;;5.38;2.78;;;;;;;;;;5050459;28;20427;-71
2022/12/06 12:11:21;;;;;;;6.38;2.60;;;;;;;;;;5049173;28;20422;-70
2022/12/06 12:13:53;;;;;;;5.00;2.60;;;;;;;;;;5044581;28;20435;-71
2022/12/06 12:16:19;;;;;;;4.78;2.60;;;;;;;;;;5026398;28;20418;-71
2022/12/06 12:18:50;;;;;;;4.10;2.30;;;;;;;;;;5045548;28;20429;-71
2022/12/06 12:21:17;;;;;;;5.80;2.08;;;;;;;;;;5046874;28;20427;-72
2022/12/06 12:23:44;;;;;;;4.57;2.20;;;;;;;;;;5047362;28;20423;-71
2022/12/06 12:26:10;;;;;;;4.65;2.40;;;;;;;;;;5039923;28;20429;-71
2022/12/06 12:28:39;;;;;;;4.60;2.23;;;;;;;;;;5042517;28;20833;-71
2022/12/06 12:31:27;;;;;;;4.63;2.10;;;;;;;;;;5032166;28;20429;-71
2022/12/06 12:34:13;;;;;;;5.07;2.30;;;;;;;;;;5031581;28;20490;-71
2022/12/06 12:36:45;;;;;;;6.43;2.20;;;;;;;;;;5030941;28;20425;-71
2022/12/06 12:39:21;;;;;;;8.15;2.30;;;;;;;;;;5029619;28;20428;-70
2022/12/06 12:41:47;;;;;;;4.43;1.90;;;;;;;;;;5035013;28;20421;-70
2022/12/06 12:44:19;;;;;;;6.93;2.00;;;;;;;;;;5046521;28;20432;-70
2022/12/06 12:46:50;;;;;;;5.18;1.92;;;;;;;;;;5044048;28;20745;-71
2022/12/06 12:49:33;;;;;;;4.60;1.80;;;;;;;;;;5044190;28;20528;-71
2022/12/06 12:51:59;;;;;;;5.95;1.98;;;;;;;;;;5051648;28;20427;-71
2022/12/06 12:54:35;;;;;;;4.72;1.83;;;;;;;;;;5029129;28;20477;-71
2022/12/06 12:57:02;;;;;;;7.67;2.57;;;;;;;;;;5050926;28;20407;-72
2022/12/06 12:59:32;;;;;;;5.65;1.98;;;;;;;;;;5063365;28;20475;-71
2022/12/06 13:02:22;;;;;;;4.95;1.92;;;;;;;;;;5049874;28;20468;-72
2022/12/06 13:04:49;;;;;;;5.38;2.30;;;;;;;;;;5035552;28;20759;-72
2022/12/06 13:07:24;;;;;;;6.18;3.28;;;;;;;;;;5044015;28;20492;-71
2022/12/06 13:10:02;;;;;;;5.90;2.20;;;;;;;;;;5065031;28;20433;-72
2022/12/06 13:12:30;;;;;;;4.78;2.28;;;;;;;;;;5047442;28;20975;-72
2022/12/06 13:15:08;;;;;;;3.90;2.05;;;;;;;;;;5047426;28;20423;-72
2022/12/06 13:17:37;;;;;;;5.38;1.98;;;;;;;;;;5044584;28;20419;-72
2022/12/06 13:20:04;;;;;;;5.00;1.83;;;;;;;;;;5021768;28;20935;-71
2022/12/06 13:22:32;;;;;;;5.10;2.00;;;;;;;;;;5048676;28;20437;-72
2022/12/06 13:25:06;;;;;;;5.43;2.10;;;;;;;;;;5049000;28;20502;-72
2022/12/06 13:27:35;;;;;;;7.78;1.80;;;;;;;;;;5029598;28;20431;-72
2022/12/06 13:30:12;;;;;;;4.50;2.08;;;;;;;;;;5044999;28;20427;-72
2022/12/06 13:32:40;;;;;;;4.70;2.10;;;;;;;;;;5042042;28;20515;-71
2022/12/06 13:35:08;;;;;;;4.80;1.95;;;;;;;;;;5041861;28;20477;-72
2022/12/06 13:37:42;;;;;;;6.60;1.93;;;;;;;;;;5043590;28;20455;-71
2022/12/06 13:40:28;;;;;;;7.45;2.80;;;;;;;;;;5045496;28;20423;-71
2022/12/06 13:42:54;;;;;;;4.47;1.90;;;;;;;;;;5049136;28;20427;-71
2022/12/06 13:45:32;;;;;;;5.45;1.90;;;;;;;;;;5051997;28;20408;-71
2022/12/06 13:47:58;;;;;;;3.60;1.90;;;;;;;;;;5027760;28;20415;-71
2022/12/06 13:50:24;;;;;;;4.82;2.10;;;;;;;;;;5034024;28;20443;-71
2022/12/06 13:52:50;;;;;;;5.13;1.90;;;;;;;;;;5045700;28;20419;-71
2022/12/06 13:55:27;;;;;;;4.55;1.60;;;;;;;;;;5047978;28;20420;-71
2022/12/06 13:57:59;;;;;;;7.57;2.40;;;;;;;;;;5034983;28;20428;-71
2022/12/06 14:00:28;;;;;;;3.73;1.70;;;;;;;;;;5038735;28;20420;-71
2022/12/06 14:02:55;;;;;;;4.05;1.73;;;;;;;;;;5043518;28;20429;-71
2022/12/06 14:05:40;;;;;;;3.92;1.73;;;;;;;;;;5046505;28;20429;-71
2022/12/06 14:08:10;;;;;;;4.68;1.75;;;;;;;;;;5041374;28;20438;-71
2022/12/06 14:10:36;;;;;;;4.20;1.50;;;;;;;;;;5048047;28;20435;-71
2022/12/06 14:13:03;;;;;;;4.50;1.85;;;;;;;;;;5044529;28;20518;-71
2022/12/06 14:15:29;;;;;;;3.75;1.50;;;;;;;;;;5053183;28;20425;-72
2022/12/06 14:17:55;;;;;;;5.90;1.80;;;;;;;;;;5046297;28;20791;-71
2022/12/06 14:20:23;;;;;;;4.57;2.08;;;;;;;;;;5034194;28;20477;-71
2022/12/06 14:22:50;;;;;;;5.20;2.00;;;;;;;;;;5035533;28;20420;-71
2022/12/06 14:25:16;;;;;;;5.53;2.28;;;;;;;;;;5034825;28;20489;-71
2022/12/06 14:27:43;;;;;;;4.40;1.80;;;;;;;;;;5049486;28;20927;-71
2022/12/06 14:30:13;;;;;;;3.40;1.80;;;;;;;;;;5043970;28;20430;-71
2022/12/06 14:32:39;;;;;;;5.43;1.83;;;;;;;;;;5031594;28;20428;-71
2022/12/06 14:35:15;;;;;;;3.30;1.70;;;;;;;;;;5046497;28;20419;-71
2022/12/06 14:37:53;;;;;;;4.25;1.67;;;;;;;;;;5044019;28;20424;-71
2022/12/06 14:40:24;;;;;;;4.60;1.85;;;;;;;;;;5051995;28;20429;-70
2022/12/06 14:43:16;;;;;;;4.80;1.90;;;;;;;;;;5039055;28;20447;-72
2022/12/06 14:45:43;;;;;;;4.90;2.00;;;;;;;;;;5031759;28;20506;-71
2022/12/06 14:48:10;;;;;;;6.23;2.27;;;;;;;;;;5052966;28;20814;-71
2022/12/06 14:50:39;;;;;;;5.65;2.33;;;;;;;;;;5038477;28;20490;-71
2022/12/06 14:53:07;;;;;;;5.70;2.25;;;;;;;;;;5032509;28;20420;-71
2022/12/06 14:55:35;;;;;;;7.22;2.50;;;;;;;;;;5051878;28;20429;-71
2022/12/06 14:58:03;;;;;;;5.65;2.63;;;;;;;;;;5024491;28;20416;-71
2022/12/06 15:00:35;;;;;;;5.60;2.75;;;;;;;;;;5053934;28;20412;-71
2022/12/06 15:03:21;;;;;;;7.88;2.92;;;;;;;;;;5044178;28;20510;-73
2022/12/06 15:05:48;;;;;;;6.00;3.05;;;;;;;;;;5045880;28;20928;-70
2022/12/06 15:08:27;;;;;;;6.22;2.45;;;;;;;;;;5028132;28;20743;-71
2022/12/06 15:10:57;;;;;;;6.68;2.50;;;;;;;;;;5046649;28;20424;-71
2022/12/06 15:13:24;;;;;;;5.80;2.33;;;;;;;;;;5049493;28;20832;-78